sensor_id;sensor_type;location;lat;lon;timestamp;P1;durP1;ratioP1;P2;durP2;ratioP2
19026;SDS011;9646;52.034;5.554;2023-04-06T00:00:27;8.43;;;6.20;;
19026;SDS011;9646;52.034;5.554;2023-04-06T00:02:54;8.38;;;6.00;;
19026;SDS011;9646;52.034;5.554;2023-04-06T00:05:21;12.27;;;6.57;;
19026;SDS011;9646;52.034;5.554;2023-04-06T00:07:48;7.93;;;5.65;;
19026;SDS011;9646;52.034;5.554;2023-04-06T00:10:15;9.48;;;6.57;;
19026;SDS011;9646;52.034;5.554;2023-04-06T00:12:43;9.52;;;6.72;;
19026;SDS011;9646;52.034;5.554;2023-04-06T00:15:10;10.40;;;7.28;;
19026;SDS011;9646;52.034;5.554;2023-04-06T00:17:38;8.65;;;6.55;;
19026;SDS011;9646;52.034;5.554;2023-04-06T00:20:06;9.02;;;6.35;;
19026;SDS011;9646;52.034;5.554;2023-04-06T00:22:33;8.23;;;5.93;;
19026;SDS011;9646;52.034;5.554;2023-04-06T00:25:00;7.55;;;5.90;;
19026;SDS011;9646;52.034;5.554;2023-04-06T00:27:27;8.60;;;5.45;;
19026;SDS011;9646;52.034;5.554;2023-04-06T00:29:54;8.77;;;6.13;;
19026;SDS011;9646;52.034;5.554;2023-04-06T00:32:22;8.07;;;5.78;;
19026;SDS011;9646;52.034;5.554;2023-04-06T00:34:50;8.48;;;6.10;;
19026;SDS011;9646;52.034;5.554;2023-04-06T00:37:17;9.95;;;6.00;;
19026;SDS011;9646;52.034;5.554;2023-04-06T00:39:45;7.80;;;5.38;;
19026;SDS011;9646;52.034;5.554;2023-04-06T00:42:12;8.20;;;5.68;;
19026;SDS011;9646;52.034;5.554;2023-04-06T00:44:39;8.95;;;5.90;;
19026;SDS011;9646;52.034;5.554;2023-04-06T00:47:06;9.55;;;6.13;;
19026;SDS011;9646;52.034;5.554;2023-04-06T00:49:34;7.20;;;5.65;;
19026;SDS011;9646;52.034;5.554;2023-04-06T00:52:02;9.23;;;6.28;;
19026;SDS011;9646;52.034;5.554;2023-04-06T00:54:29;8.15;;;6.22;;
19026;SDS011;9646;52.034;5.554;2023-04-06T00:56:56;8.38;;;6.20;;
19026;SDS011;9646;52.034;5.554;2023-04-06T00:59:23;8.60;;;5.63;;
19026;SDS011;9646;52.034;5.554;2023-04-06T01:01:51;9.38;;;5.97;;
19026;SDS011;9646;52.034;5.554;2023-04-06T01:04:18;8.63;;;6.07;;
19026;SDS011;9646;52.034;5.554;2023-04-06T01:06:47;7.22;;;5.68;;
19026;SDS011;9646;52.034;5.554;2023-04-06T01:09:16;7.50;;;5.75;;
19026;SDS011;9646;52.034;5.554;2023-04-06T01:11:43;9.55;;;6.25;;
19026;SDS011;9646;52.034;5.554;2023-04-06T01:14:10;10.27;;;6.47;;
19026;SDS011;9646;52.034;5.554;2023-04-06T01:16:37;6.72;;;5.75;;
19026;SDS011;9646;52.034;5.554;2023-04-06T01:19:07;9.38;;;6.40;;
19026;SDS011;9646;52.034;5.554;2023-04-06T01:21:34;10.07;;;6.15;;
19026;SDS011;9646;52.034;5.554;2023-04-06T01:24:03;8.20;;;5.72;;
19026;SDS011;9646;52.034;5.554;2023-04-06T01:26:31;9.43;;;6.00;;
19026;SDS011;9646;52.034;5.554;2023-04-06T01:28:58;9.73;;;6.55;;
19026;SDS011;9646;52.034;5.554;2023-04-06T01:31:25;7.25;;;6.00;;
19026;SDS011;9646;52.034;5.554;2023-04-06T01:33:52;10.10;;;6.47;;
19026;SDS011;9646;52.034;5.554;2023-04-06T01:36:20;6.88;;;5.35;;
19026;SDS011;9646;52.034;5.554;2023-04-06T01:38:47;7.90;;;5.88;;
19026;SDS011;9646;52.034;5.554;2023-04-06T01:41:16;7.57;;;5.45;;
19026;SDS011;9646;52.034;5.554;2023-04-06T01:43:43;7.88;;;5.00;;
19026;SDS011;9646;52.034;5.554;2023-04-06T01:46:10;7.13;;;5.28;;
19026;SDS011;9646;52.034;5.554;2023-04-06T01:48:37;7.18;;;5.07;;
19026;SDS011;9646;52.034;5.554;2023-04-06T01:51:04;7.95;;;6.20;;
19026;SDS011;9646;52.034;5.554;2023-04-06T01:53:31;8.02;;;5.70;;
19026;SDS011;9646;52.034;5.554;2023-04-06T01:55:58;9.85;;;6.20;;
19026;SDS011;9646;52.034;5.554;2023-04-06T01:58:27;8.52;;;5.78;;
19026;SDS011;9646;52.034;5.554;2023-04-06T02:00:54;7.78;;;5.35;;
19026;SDS011;9646;52.034;5.554;2023-04-06T02:03:21;8.38;;;5.43;;
19026;SDS011;9646;52.034;5.554;2023-04-06T02:05:48;9.07;;;6.57;;
19026;SDS011;9646;52.034;5.554;2023-04-06T02:08:15;6.68;;;5.07;;
19026;SDS011;9646;52.034;5.554;2023-04-06T02:10:42;7.47;;;4.78;;
19026;SDS011;9646;52.034;5.554;2023-04-06T02:13:09;7.57;;;4.60;;
19026;SDS011;9646;52.034;5.554;2023-04-06T02:15:38;8.02;;;5.15;;
19026;SDS011;9646;52.034;5.554;2023-04-06T02:18:05;6.28;;;4.97;;
19026;SDS011;9646;52.034;5.554;2023-04-06T02:20:32;6.90;;;5.20;;
19026;SDS011;9646;52.034;5.554;2023-04-06T02:22:59;7.68;;;4.72;;
19026;SDS011;9646;52.034;5.554;2023-04-06T02:25:26;7.30;;;5.82;;
19026;SDS011;9646;52.034;5.554;2023-04-06T02:27:53;8.23;;;5.72;;
19026;SDS011;9646;52.034;5.554;2023-04-06T02:30:20;7.75;;;5.53;;
19026;SDS011;9646;52.034;5.554;2023-04-06T02:32:49;9.90;;;5.63;;
19026;SDS011;9646;52.034;5.554;2023-04-06T02:35:16;7.25;;;5.28;;
19026;SDS011;9646;52.034;5.554;2023-04-06T02:37:43;8.50;;;4.90;;
19026;SDS011;9646;52.034;5.554;2023-04-06T02:40:10;6.38;;;4.72;;
19026;SDS011;9646;52.034;5.554;2023-04-06T02:42:37;7.10;;;4.63;;
19026;SDS011;9646;52.034;5.554;2023-04-06T02:45:05;7.68;;;6.07;;
19026;SDS011;9646;52.034;5.554;2023-04-06T02:47:32;9.10;;;4.28;;
19026;SDS011;9646;52.034;5.554;2023-04-06T02:50:00;8.35;;;5.13;;
19026;SDS011;9646;52.034;5.554;2023-04-06T02:52:28;7.18;;;4.57;;
19026;SDS011;9646;52.034;5.554;2023-04-06T02:54:55;9.68;;;6.57;;
19026;SDS011;9646;52.034;5.554;2023-04-06T02:57:22;9.57;;;4.75;;
19026;SDS011;9646;52.034;5.554;2023-04-06T02:59:49;7.05;;;4.47;;
19026;SDS011;9646;52.034;5.554;2023-04-06T03:02:16;5.55;;;4.35;;
19026;SDS011;9646;52.034;5.554;2023-04-06T03:04:44;7.68;;;5.18;;
19026;SDS011;9646;52.034;5.554;2023-04-06T03:07:12;7.13;;;4.82;;
19026;SDS011;9646;52.034;5.554;2023-04-06T03:09:39;6.40;;;4.72;;
19026;SDS011;9646;52.034;5.554;2023-04-06T03:12:06;7.72;;;4.72;;
19026;SDS011;9646;52.034;5.554;2023-04-06T03:14:33;6.22;;;4.10;;
19026;SDS011;9646;52.034;5.554;2023-04-06T03:17:01;6.68;;;4.60;;
19026;SDS011;9646;52.034;5.554;2023-04-06T03:19:28;5.72;;;3.95;;
19026;SDS011;9646;52.034;5.554;2023-04-06T03:21:55;5.63;;;4.32;;
19026;SDS011;9646;52.034;5.554;2023-04-06T03:24:23;6.65;;;4.82;;
19026;SDS011;9646;52.034;5.554;2023-04-06T03:26:50;8.18;;;5.13;;
19026;SDS011;9646;52.034;5.554;2023-04-06T03:29:17;7.75;;;5.07;;
19026;SDS011;9646;52.034;5.554;2023-04-06T03:31:44;7.32;;;4.43;;
19026;SDS011;9646;52.034;5.554;2023-04-06T03:34:11;8.63;;;5.68;;
19026;SDS011;9646;52.034;5.554;2023-04-06T03:36:38;9.10;;;5.78;;
19026;SDS011;9646;52.034;5.554;2023-04-06T03:39:05;10.30;;;4.90;;
19026;SDS011;9646;52.034;5.554;2023-04-06T03:41:34;6.80;;;4.85;;
19026;SDS011;9646;52.034;5.554;2023-04-06T03:44:01;7.07;;;4.65;;
19026;SDS011;9646;52.034;5.554;2023-04-06T03:46:28;6.65;;;5.28;;
19026;SDS011;9646;52.034;5.554;2023-04-06T03:48:55;6.85;;;5.10;;
19026;SDS011;9646;52.034;5.554;2023-04-06T03:51:22;8.43;;;5.50;;
19026;SDS011;9646;52.034;5.554;2023-04-06T03:53:50;8.63;;;6.20;;
19026;SDS011;9646;52.034;5.554;2023-04-06T03:56:17;8.02;;;5.13;;
19026;SDS011;9646;52.034;5.554;2023-04-06T03:58:46;7.82;;;5.20;;
19026;SDS011;9646;52.034;5.554;2023-04-06T04:01:15;9.82;;;5.88;;
19026;SDS011;9646;52.034;5.554;2023-04-06T04:03:42;8.45;;;6.38;;
19026;SDS011;9646;52.034;5.554;2023-04-06T04:06:09;8.10;;;6.20;;
19026;SDS011;9646;52.034;5.554;2023-04-06T04:08:37;8.32;;;6.10;;
19026;SDS011;9646;52.034;5.554;2023-04-06T04:11:04;7.47;;;5.53;;
19026;SDS011;9646;52.034;5.554;2023-04-06T04:13:31;6.43;;;4.95;;
19026;SDS011;9646;52.034;5.554;2023-04-06T04:15:59;7.82;;;4.50;;
19026;SDS011;9646;52.034;5.554;2023-04-06T04:18:26;6.00;;;4.10;;
19026;SDS011;9646;52.034;5.554;2023-04-06T04:20:53;6.65;;;5.38;;
19026;SDS011;9646;52.034;5.554;2023-04-06T04:23:20;7.55;;;5.35;;
19026;SDS011;9646;52.034;5.554;2023-04-06T04:25:48;8.68;;;5.82;;
19026;SDS011;9646;52.034;5.554;2023-04-06T04:28:16;7.47;;;5.43;;
19026;SDS011;9646;52.034;5.554;2023-04-06T04:30:43;8.52;;;6.53;;
19026;SDS011;9646;52.034;5.554;2023-04-06T04:33:11;7.10;;;4.38;;
19026;SDS011;9646;52.034;5.554;2023-04-06T04:35:38;8.50;;;6.13;;
19026;SDS011;9646;52.034;5.554;2023-04-06T04:38:05;7.20;;;5.03;;
19026;SDS011;9646;52.034;5.554;2023-04-06T04:40:33;7.07;;;5.88;;
19026;SDS011;9646;52.034;5.554;2023-04-06T04:43:00;9.05;;;6.03;;
19026;SDS011;9646;52.034;5.554;2023-04-06T04:45:27;7.97;;;4.55;;
19026;SDS011;9646;52.034;5.554;2023-04-06T04:47:54;5.95;;;4.78;;
19026;SDS011;9646;52.034;5.554;2023-04-06T04:50:22;8.75;;;5.07;;
19026;SDS011;9646;52.034;5.554;2023-04-06T04:52:49;6.85;;;5.57;;
19026;SDS011;9646;52.034;5.554;2023-04-06T04:55:16;7.70;;;5.30;;
19026;SDS011;9646;52.034;5.554;2023-04-06T04:57:43;6.50;;;4.72;;
19026;SDS011;9646;52.034;5.554;2023-04-06T05:00:11;12.82;;;7.35;;
19026;SDS011;9646;52.034;5.554;2023-04-06T05:02:38;8.35;;;5.75;;
19026;SDS011;9646;52.034;5.554;2023-04-06T05:05:05;7.55;;;5.30;;
19026;SDS011;9646;52.034;5.554;2023-04-06T05:07:34;11.40;;;6.72;;
19026;SDS011;9646;52.034;5.554;2023-04-06T05:10:01;8.70;;;5.97;;
19026;SDS011;9646;52.034;5.554;2023-04-06T05:12:28;8.60;;;6.05;;
19026;SDS011;9646;52.034;5.554;2023-04-06T05:14:55;9.57;;;6.15;;
19026;SDS011;9646;52.034;5.554;2023-04-06T05:17:22;8.75;;;5.97;;
19026;SDS011;9646;52.034;5.554;2023-04-06T05:19:50;7.45;;;5.85;;
19026;SDS011;9646;52.034;5.554;2023-04-06T05:22:17;7.65;;;6.03;;
19026;SDS011;9646;52.034;5.554;2023-04-06T05:24:46;9.98;;;5.90;;
19026;SDS011;9646;52.034;5.554;2023-04-06T05:27:13;9.93;;;6.53;;
19026;SDS011;9646;52.034;5.554;2023-04-06T05:29:40;8.43;;;5.90;;
19026;SDS011;9646;52.034;5.554;2023-04-06T05:32:07;9.50;;;5.65;;
19026;SDS011;9646;52.034;5.554;2023-04-06T05:34:35;8.82;;;5.82;;
19026;SDS011;9646;52.034;5.554;2023-04-06T05:37:02;9.77;;;6.63;;
19026;SDS011;9646;52.034;5.554;2023-04-06T05:39:29;8.55;;;6.28;;
19026;SDS011;9646;52.034;5.554;2023-04-06T05:41:57;11.13;;;6.38;;
19026;SDS011;9646;52.034;5.554;2023-04-06T05:44:24;8.95;;;5.63;;
19026;SDS011;9646;52.034;5.554;2023-04-06T05:46:51;10.68;;;6.32;;
19026;SDS011;9646;52.034;5.554;2023-04-06T05:49:18;7.60;;;5.53;;
19026;SDS011;9646;52.034;5.554;2023-04-06T05:51:45;10.40;;;6.95;;
19026;SDS011;9646;52.034;5.554;2023-04-06T05:54:12;11.27;;;7.32;;
19026;SDS011;9646;52.034;5.554;2023-04-06T05:56:39;8.80;;;6.05;;
19026;SDS011;9646;52.034;5.554;2023-04-06T05:59:08;11.63;;;6.70;;
19026;SDS011;9646;52.034;5.554;2023-04-06T06:01:35;13.25;;;8.27;;
19026;SDS011;9646;52.034;5.554;2023-04-06T06:04:02;11.00;;;7.15;;
19026;SDS011;9646;52.034;5.554;2023-04-06T06:06:29;10.68;;;6.93;;
19026;SDS011;9646;52.034;5.554;2023-04-06T06:08:57;9.45;;;6.57;;
19026;SDS011;9646;52.034;5.554;2023-04-06T06:11:25;9.85;;;6.60;;
19026;SDS011;9646;52.034;5.554;2023-04-06T06:13:53;13.35;;;6.38;;
19026;SDS011;9646;52.034;5.554;2023-04-06T06:16:21;14.43;;;7.95;;
19026;SDS011;9646;52.034;5.554;2023-04-06T06:18:48;13.40;;;8.35;;
19026;SDS011;9646;52.034;5.554;2023-04-06T06:21:15;11.60;;;7.50;;
19026;SDS011;9646;52.034;5.554;2023-04-06T06:23:42;10.52;;;6.78;;
19026;SDS011;9646;52.034;5.554;2023-04-06T06:26:09;11.18;;;8.07;;
19026;SDS011;9646;52.034;5.554;2023-04-06T06:28:36;10.18;;;5.90;;
19026;SDS011;9646;52.034;5.554;2023-04-06T06:31:04;8.13;;;5.97;;
19026;SDS011;9646;52.034;5.554;2023-04-06T06:33:32;14.07;;;8.55;;
19026;SDS011;9646;52.034;5.554;2023-04-06T06:35:59;16.27;;;9.48;;
19026;SDS011;9646;52.034;5.554;2023-04-06T06:38:26;14.52;;;7.85;;
19026;SDS011;9646;52.034;5.554;2023-04-06T06:40:53;10.30;;;7.15;;
19026;SDS011;9646;52.034;5.554;2023-04-06T06:43:20;10.50;;;7.13;;
19026;SDS011;9646;52.034;5.554;2023-04-06T06:45:47;9.85;;;6.05;;
19026;SDS011;9646;52.034;5.554;2023-04-06T06:48:14;14.20;;;8.57;;
19026;SDS011;9646;52.034;5.554;2023-04-06T06:50:43;10.27;;;6.05;;
19026;SDS011;9646;52.034;5.554;2023-04-06T06:53:10;13.43;;;8.82;;
19026;SDS011;9646;52.034;5.554;2023-04-06T06:55:37;10.73;;;6.93;;
19026;SDS011;9646;52.034;5.554;2023-04-06T06:58:04;10.25;;;6.00;;
19026;SDS011;9646;52.034;5.554;2023-04-06T07:00:31;10.55;;;7.45;;
19026;SDS011;9646;52.034;5.554;2023-04-06T07:02:59;9.18;;;6.75;;
19026;SDS011;9646;52.034;5.554;2023-04-06T07:05:26;14.93;;;7.95;;
19026;SDS011;9646;52.034;5.554;2023-04-06T07:07:55;9.52;;;6.20;;
19026;SDS011;9646;52.034;5.554;2023-04-06T07:10:22;10.45;;;5.60;;
19026;SDS011;9646;52.034;5.554;2023-04-06T07:12:49;10.63;;;7.55;;
19026;SDS011;9646;52.034;5.554;2023-04-06T07:15:16;14.43;;;8.10;;
19026;SDS011;9646;52.034;5.554;2023-04-06T07:17:43;11.15;;;9.07;;
19026;SDS011;9646;52.034;5.554;2023-04-06T07:20:10;19.85;;;13.25;;
19026;SDS011;9646;52.034;5.554;2023-04-06T07:22:37;16.02;;;10.55;;
19026;SDS011;9646;52.034;5.554;2023-04-06T07:25:06;15.88;;;10.70;;
19026;SDS011;9646;52.034;5.554;2023-04-06T07:27:33;12.02;;;7.80;;
19026;SDS011;9646;52.034;5.554;2023-04-06T07:30:01;10.52;;;7.43;;
19026;SDS011;9646;52.034;5.554;2023-04-06T07:32:28;11.18;;;7.60;;
19026;SDS011;9646;52.034;5.554;2023-04-06T07:34:55;12.93;;;8.20;;
19026;SDS011;9646;52.034;5.554;2023-04-06T07:37:23;15.70;;;10.55;;
19026;SDS011;9646;52.034;5.554;2023-04-06T07:39:50;12.55;;;9.63;;
19026;SDS011;9646;52.034;5.554;2023-04-06T07:42:18;12.77;;;7.40;;
19026;SDS011;9646;52.034;5.554;2023-04-06T07:44:45;18.38;;;11.40;;
19026;SDS011;9646;52.034;5.554;2023-04-06T07:47:12;15.32;;;10.88;;
19026;SDS011;9646;52.034;5.554;2023-04-06T07:49:39;14.40;;;10.00;;
19026;SDS011;9646;52.034;5.554;2023-04-06T07:52:07;16.90;;;11.40;;
19026;SDS011;9646;52.034;5.554;2023-04-06T07:54:34;18.85;;;12.55;;
19026;SDS011;9646;52.034;5.554;2023-04-06T07:57:01;13.23;;;10.65;;
19026;SDS011;9646;52.034;5.554;2023-04-06T07:59:29;13.88;;;9.20;;
19026;SDS011;9646;52.034;5.554;2023-04-06T08:01:56;17.13;;;9.52;;
19026;SDS011;9646;52.034;5.554;2023-04-06T08:04:23;16.83;;;11.30;;
19026;SDS011;9646;52.034;5.554;2023-04-06T08:06:51;20.77;;;12.80;;
19026;SDS011;9646;52.034;5.554;2023-04-06T08:09:18;15.05;;;10.65;;
19026;SDS011;9646;52.034;5.554;2023-04-06T08:11:45;17.90;;;12.95;;
19026;SDS011;9646;52.034;5.554;2023-04-06T08:14:13;16.35;;;11.55;;
19026;SDS011;9646;52.034;5.554;2023-04-06T08:16:42;11.82;;;8.43;;
19026;SDS011;9646;52.034;5.554;2023-04-06T08:19:09;13.63;;;8.30;;
19026;SDS011;9646;52.034;5.554;2023-04-06T08:21:36;13.93;;;10.10;;
19026;SDS011;9646;52.034;5.554;2023-04-06T08:24:04;17.60;;;10.30;;
19026;SDS011;9646;52.034;5.554;2023-04-06T08:26:31;14.48;;;9.73;;
19026;SDS011;9646;52.034;5.554;2023-04-06T08:28:59;16.73;;;11.60;;
19026;SDS011;9646;52.034;5.554;2023-04-06T08:31:26;14.93;;;9.02;;
19026;SDS011;9646;52.034;5.554;2023-04-06T08:33:54;14.85;;;9.52;;
19026;SDS011;9646;52.034;5.554;2023-04-06T08:36:21;16.25;;;11.90;;
19026;SDS011;9646;52.034;5.554;2023-04-06T08:38:49;16.92;;;11.45;;
19026;SDS011;9646;52.034;5.554;2023-04-06T08:41:16;13.27;;;8.25;;
19026;SDS011;9646;52.034;5.554;2023-04-06T08:43:44;9.43;;;5.97;;
19026;SDS011;9646;52.034;5.554;2023-04-06T08:46:13;13.00;;;9.40;;
19026;SDS011;9646;52.034;5.554;2023-04-06T08:48:40;12.75;;;8.90;;
19026;SDS011;9646;52.034;5.554;2023-04-06T08:51:09;17.08;;;11.60;;
19026;SDS011;9646;52.034;5.554;2023-04-06T08:53:36;21.10;;;13.75;;
19026;SDS011;9646;52.034;5.554;2023-04-06T08:56:04;15.55;;;10.52;;
19026;SDS011;9646;52.034;5.554;2023-04-06T08:58:32;19.42;;;14.00;;
19026;SDS011;9646;52.034;5.554;2023-04-06T09:01:00;18.42;;;11.38;;
19026;SDS011;9646;52.034;5.554;2023-04-06T09:03:27;20.75;;;14.38;;
19026;SDS011;9646;52.034;5.554;2023-04-06T09:05:55;23.63;;;15.93;;
19026;SDS011;9646;52.034;5.554;2023-04-06T09:08:23;20.90;;;14.70;;
19026;SDS011;9646;52.034;5.554;2023-04-06T09:10:51;23.00;;;13.27;;
19026;SDS011;9646;52.034;5.554;2023-04-06T09:13:18;19.83;;;14.07;;
19026;SDS011;9646;52.034;5.554;2023-04-06T09:15:45;28.42;;;18.25;;
19026;SDS011;9646;52.034;5.554;2023-04-06T09:18:12;19.35;;;13.45;;
19026;SDS011;9646;52.034;5.554;2023-04-06T09:20:39;22.80;;;14.68;;
19026;SDS011;9646;52.034;5.554;2023-04-06T09:23:07;19.80;;;12.57;;
19026;SDS011;9646;52.034;5.554;2023-04-06T09:25:45;20.90;;;14.00;;
19026;SDS011;9646;52.034;5.554;2023-04-06T09:28:12;20.33;;;13.77;;
19026;SDS011;9646;52.034;5.554;2023-04-06T09:30:47;35.13;;;16.55;;
19026;SDS011;9646;52.034;5.554;2023-04-06T09:33:21;17.85;;;12.30;;
19026;SDS011;9646;52.034;5.554;2023-04-06T09:35:49;22.48;;;13.52;;
19026;SDS011;9646;52.034;5.554;2023-04-06T09:38:16;22.98;;;16.33;;
19026;SDS011;9646;52.034;5.554;2023-04-06T09:40:51;27.90;;;16.30;;
19026;SDS011;9646;52.034;5.554;2023-04-06T09:43:23;17.15;;;12.30;;
19026;SDS011;9646;52.034;5.554;2023-04-06T09:45:50;19.77;;;13.10;;
19026;SDS011;9646;52.034;5.554;2023-04-06T09:48:18;16.90;;;10.82;;
19026;SDS011;9646;52.034;5.554;2023-04-06T09:50:47;25.73;;;17.73;;
19026;SDS011;9646;52.034;5.554;2023-04-06T09:53:14;23.50;;;16.85;;
19026;SDS011;9646;52.034;5.554;2023-04-06T09:55:43;19.67;;;13.35;;
19026;SDS011;9646;52.034;5.554;2023-04-06T09:58:12;30.05;;;18.90;;
19026;SDS011;9646;52.034;5.554;2023-04-06T10:00:41;30.88;;;19.20;;
19026;SDS011;9646;52.034;5.554;2023-04-06T10:03:11;26.95;;;17.83;;
19026;SDS011;9646;52.034;5.554;2023-04-06T10:05:42;20.65;;;14.90;;
19026;SDS011;9646;52.034;5.554;2023-04-06T10:08:10;20.33;;;14.35;;
19026;SDS011;9646;52.034;5.554;2023-04-06T10:10:37;24.88;;;16.88;;
19026;SDS011;9646;52.034;5.554;2023-04-06T10:13:05;24.08;;;16.80;;
19026;SDS011;9646;52.034;5.554;2023-04-06T10:15:34;27.15;;;18.05;;
19026;SDS011;9646;52.034;5.554;2023-04-06T10:18:01;25.45;;;16.88;;
19026;SDS011;9646;52.034;5.554;2023-04-06T10:20:31;18.55;;;12.95;;
19026;SDS011;9646;52.034;5.554;2023-04-06T10:23:04;25.25;;;15.13;;
19026;SDS011;9646;52.034;5.554;2023-04-06T10:25:32;20.40;;;14.15;;
19026;SDS011;9646;52.034;5.554;2023-04-06T10:28:00;19.95;;;12.98;;
19026;SDS011;9646;52.034;5.554;2023-04-06T10:30:28;20.17;;;14.57;;
19026;SDS011;9646;52.034;5.554;2023-04-06T10:32:57;19.92;;;14.07;;
19026;SDS011;9646;52.034;5.554;2023-04-06T10:35:25;21.60;;;14.38;;
19026;SDS011;9646;52.034;5.554;2023-04-06T10:38:05;21.50;;;14.75;;
19026;SDS011;9646;52.034;5.554;2023-04-06T10:40:35;21.17;;;14.30;;
19026;SDS011;9646;52.034;5.554;2023-04-06T10:43:12;22.05;;;14.48;;
19026;SDS011;9646;52.034;5.554;2023-04-06T10:45:40;18.70;;;12.90;;
19026;SDS011;9646;52.034;5.554;2023-04-06T10:48:15;22.15;;;13.15;;
19026;SDS011;9646;52.034;5.554;2023-04-06T10:50:43;16.48;;;11.60;;
19026;SDS011;9646;52.034;5.554;2023-04-06T10:53:10;16.42;;;11.70;;
19026;SDS011;9646;52.034;5.554;2023-04-06T10:55:38;15.27;;;10.25;;
19026;SDS011;9646;52.034;5.554;2023-04-06T10:58:06;14.77;;;11.32;;
19026;SDS011;9646;52.034;5.554;2023-04-06T11:00:33;14.57;;;10.57;;
19026;SDS011;9646;52.034;5.554;2023-04-06T11:03:00;15.75;;;9.55;;
19026;SDS011;9646;52.034;5.554;2023-04-06T11:05:28;11.65;;;9.18;;
19026;SDS011;9646;52.034;5.554;2023-04-06T11:07:56;13.30;;;9.65;;
19026;SDS011;9646;52.034;5.554;2023-04-06T11:10:23;12.60;;;8.65;;
19026;SDS011;9646;52.034;5.554;2023-04-06T11:12:54;9.98;;;7.28;;
19026;SDS011;9646;52.034;5.554;2023-04-06T11:15:21;8.88;;;7.00;;
19026;SDS011;9646;52.034;5.554;2023-04-06T11:17:48;9.73;;;6.72;;
19026;SDS011;9646;52.034;5.554;2023-04-06T11:20:16;8.25;;;6.88;;
19026;SDS011;9646;52.034;5.554;2023-04-06T11:22:49;10.65;;;7.15;;
19026;SDS011;9646;52.034;5.554;2023-04-06T11:25:16;8.90;;;6.47;;
19026;SDS011;9646;52.034;5.554;2023-04-06T11:27:44;10.30;;;7.30;;
19026;SDS011;9646;52.034;5.554;2023-04-06T11:30:12;9.60;;;6.97;;
19026;SDS011;9646;52.034;5.554;2023-04-06T11:32:39;8.38;;;6.15;;
19026;SDS011;9646;52.034;5.554;2023-04-06T11:35:07;10.43;;;6.75;;
19026;SDS011;9646;52.034;5.554;2023-04-06T11:37:37;8.20;;;6.28;;
19026;SDS011;9646;52.034;5.554;2023-04-06T11:40:07;7.97;;;6.13;;
19026;SDS011;9646;52.034;5.554;2023-04-06T11:42:34;6.20;;;4.68;;
19026;SDS011;9646;52.034;5.554;2023-04-06T11:45:02;7.88;;;5.55;;
19026;SDS011;9646;52.034;5.554;2023-04-06T11:47:29;8.55;;;5.35;;
19026;SDS011;9646;52.034;5.554;2023-04-06T11:50:04;7.15;;;5.57;;
19026;SDS011;9646;52.034;5.554;2023-04-06T11:52:32;18.58;;;7.35;;
19026;SDS011;9646;52.034;5.554;2023-04-06T11:55:09;18.90;;;7.18;;
19026;SDS011;9646;52.034;5.554;2023-04-06T11:57:37;9.95;;;6.47;;
19026;SDS011;9646;52.034;5.554;2023-04-06T12:00:05;8.90;;;5.15;;
19026;SDS011;9646;52.034;5.554;2023-04-06T12:02:33;5.70;;;4.60;;
19026;SDS011;9646;52.034;5.554;2023-04-06T12:05:01;10.70;;;5.22;;
19026;SDS011;9646;52.034;5.554;2023-04-06T12:07:28;11.60;;;5.00;;
19026;SDS011;9646;52.034;5.554;2023-04-06T12:09:55;7.13;;;4.57;;
19026;SDS011;9646;52.034;5.554;2023-04-06T12:12:22;8.82;;;4.32;;
19026;SDS011;9646;52.034;5.554;2023-04-06T12:14:50;7.32;;;4.75;;
19026;SDS011;9646;52.034;5.554;2023-04-06T12:17:18;7.30;;;4.45;;
19026;SDS011;9646;52.034;5.554;2023-04-06T12:19:45;8.63;;;5.25;;
19026;SDS011;9646;52.034;5.554;2023-04-06T12:22:12;7.07;;;5.22;;
19026;SDS011;9646;52.034;5.554;2023-04-06T12:24:39;5.13;;;3.28;;
19026;SDS011;9646;52.034;5.554;2023-04-06T12:27:06;8.88;;;4.88;;
19026;SDS011;9646;52.034;5.554;2023-04-06T12:29:35;7.70;;;4.95;;
19026;SDS011;9646;52.034;5.554;2023-04-06T12:32:04;8.45;;;4.78;;
19026;SDS011;9646;52.034;5.554;2023-04-06T12:34:31;8.73;;;4.50;;
19026;SDS011;9646;52.034;5.554;2023-04-06T12:36:58;5.95;;;3.92;;
19026;SDS011;9646;52.034;5.554;2023-04-06T12:39:26;6.60;;;4.50;;
19026;SDS011;9646;52.034;5.554;2023-04-06T12:41:53;6.60;;;4.55;;
19026;SDS011;9646;52.034;5.554;2023-04-06T12:44:21;7.43;;;5.38;;
19026;SDS011;9646;52.034;5.554;2023-04-06T12:46:48;6.93;;;5.40;;
19026;SDS011;9646;52.034;5.554;2023-04-06T12:49:16;5.82;;;4.20;;
19026;SDS011;9646;52.034;5.554;2023-04-06T12:51:44;9.25;;;4.68;;
19026;SDS011;9646;52.034;5.554;2023-04-06T12:54:11;11.38;;;5.43;;
19026;SDS011;9646;52.034;5.554;2023-04-06T12:56:38;7.30;;;4.30;;
19026;SDS011;9646;52.034;5.554;2023-04-06T12:59:06;5.70;;;4.20;;
19026;SDS011;9646;52.034;5.554;2023-04-06T13:01:33;7.93;;;5.63;;
19026;SDS011;9646;52.034;5.554;2023-04-06T13:04:00;5.63;;;3.25;;
19026;SDS011;9646;52.034;5.554;2023-04-06T13:06:28;8.98;;;5.50;;
19026;SDS011;9646;52.034;5.554;2023-04-06T13:08:55;6.47;;;4.38;;
19026;SDS011;9646;52.034;5.554;2023-04-06T13:11:23;5.40;;;3.95;;
19026;SDS011;9646;52.034;5.554;2023-04-06T13:13:51;6.47;;;4.68;;
19026;SDS011;9646;52.034;5.554;2023-04-06T13:16:18;5.25;;;3.55;;
19026;SDS011;9646;52.034;5.554;2023-04-06T13:18:45;8.27;;;5.65;;
19026;SDS011;9646;52.034;5.554;2023-04-06T13:21:13;5.60;;;4.35;;
19026;SDS011;9646;52.034;5.554;2023-04-06T13:23:43;6.38;;;3.97;;
19026;SDS011;9646;52.034;5.554;2023-04-06T13:26:10;5.43;;;3.00;;
19026;SDS011;9646;52.034;5.554;2023-04-06T13:28:38;7.40;;;4.30;;
19026;SDS011;9646;52.034;5.554;2023-04-06T13:31:05;5.38;;;3.47;;
19026;SDS011;9646;52.034;5.554;2023-04-06T13:33:33;10.02;;;4.30;;
19026;SDS011;9646;52.034;5.554;2023-04-06T13:36:00;7.88;;;4.82;;
19026;SDS011;9646;52.034;5.554;2023-04-06T13:38:27;7.65;;;5.57;;
19026;SDS011;9646;52.034;5.554;2023-04-06T13:40:56;7.60;;;4.40;;
19026;SDS011;9646;52.034;5.554;2023-04-06T13:43:23;12.73;;;5.28;;
19026;SDS011;9646;52.034;5.554;2023-04-06T13:45:52;13.98;;;5.30;;
19026;SDS011;9646;52.034;5.554;2023-04-06T13:48:20;9.90;;;4.78;;
19026;SDS011;9646;52.034;5.554;2023-04-06T13:50:47;6.22;;;4.22;;
19026;SDS011;9646;52.034;5.554;2023-04-06T13:53:14;4.72;;;3.08;;
19026;SDS011;9646;52.034;5.554;2023-04-06T13:55:41;7.20;;;4.47;;
19026;SDS011;9646;52.034;5.554;2023-04-06T13:58:09;7.53;;;4.82;;
19026;SDS011;9646;52.034;5.554;2023-04-06T14:00:36;4.97;;;3.58;;
19026;SDS011;9646;52.034;5.554;2023-04-06T14:03:04;6.18;;;3.40;;
19026;SDS011;9646;52.034;5.554;2023-04-06T14:05:31;10.80;;;6.93;;
19026;SDS011;9646;52.034;5.554;2023-04-06T14:07:58;8.15;;;5.30;;
19026;SDS011;9646;52.034;5.554;2023-04-06T14:10:25;8.43;;;6.00;;
19026;SDS011;9646;52.034;5.554;2023-04-06T14:12:52;9.32;;;5.45;;
19026;SDS011;9646;52.034;5.554;2023-04-06T14:15:21;7.70;;;4.78;;
19026;SDS011;9646;52.034;5.554;2023-04-06T14:17:48;6.85;;;5.03;;
19026;SDS011;9646;52.034;5.554;2023-04-06T14:20:16;6.70;;;3.97;;
19026;SDS011;9646;52.034;5.554;2023-04-06T14:22:43;7.40;;;3.60;;
19026;SDS011;9646;52.034;5.554;2023-04-06T14:25:11;7.22;;;4.70;;
19026;SDS011;9646;52.034;5.554;2023-04-06T14:27:38;4.63;;;3.33;;
19026;SDS011;9646;52.034;5.554;2023-04-06T14:30:05;6.05;;;4.43;;
19026;SDS011;9646;52.034;5.554;2023-04-06T14:32:34;7.13;;;5.07;;
19026;SDS011;9646;52.034;5.554;2023-04-06T14:35:02;6.50;;;4.45;;
19026;SDS011;9646;52.034;5.554;2023-04-06T14:37:29;7.93;;;5.38;;
19026;SDS011;9646;52.034;5.554;2023-04-06T14:39:56;5.18;;;3.35;;
19026;SDS011;9646;52.034;5.554;2023-04-06T14:42:23;5.93;;;3.97;;
19026;SDS011;9646;52.034;5.554;2023-04-06T14:44:51;5.60;;;3.53;;
19026;SDS011;9646;52.034;5.554;2023-04-06T14:47:18;7.25;;;5.03;;
19026;SDS011;9646;52.034;5.554;2023-04-06T14:49:49;6.88;;;4.65;;
19026;SDS011;9646;52.034;5.554;2023-04-06T14:52:16;4.68;;;2.90;;
19026;SDS011;9646;52.034;5.554;2023-04-06T14:54:43;7.95;;;4.85;;